Time;durP1;ratioP1;P1;durP2;ratioP2;P2;SDS_P1;SDS_P2;PMS_P1;PMS_P2;Temp;Humidity;BMP_temperature;BMP_pressure;BME280_temperature;BME280_humidity;BME280_pressure;Samples;Min_cycle;Max_cycle;Signal;HPM_P1;HPM_P2
2023/04/02 00:01:00;;;;;;;0.50;0.50;;;4.90;99.90;;;;;;6209859;23;20185;-87
2023/04/02 00:03:58;;;;;;;0.50;0.50;;;4.90;99.90;;;;;;6209282;23;20205;-87
2023/04/02 00:06:31;;;;;;;0.57;0.57;;;4.80;99.90;;;;;;6208885;23;20198;-87
2023/04/02 00:09:12;;;;;;;0.73;0.73;;;4.70;99.90;;;;;;6209593;23;20269;-88
2023/04/02 00:11:47;;;;;;;0.50;0.50;;;4.70;99.90;;;;;;6209305;23;20210;-88
2023/04/02 00:14:29;;;;;;;0.50;0.50;;;4.80;99.90;;;;;;6209414;23;20190;-88
2023/04/02 00:16:58;;;;;;;1.60;1.30;;;4.70;99.90;;;;;;6209450;23;20218;-88
2023/04/02 00:19:34;;;;;;;0.70;0.70;;;4.60;99.90;;;;;;6209629;23;20596;-88
2023/04/02 00:22:02;;;;;;;0.93;0.93;;;4.60;99.90;;;;;;6210235;23;20170;-88
2023/04/02 00:24:28;;;;;;;0.40;0.40;;;4.50;99.90;;;;;;6184579;23;20213;-87
2023/04/02 00:26:54;;;;;;;2.93;0.93;;;4.50;99.90;;;;;;6214293;23;20650;-88
2023/04/02 00:29:20;;;;;;;0.50;0.50;;;4.50;99.90;;;;;;6199425;23;20197;-88
2023/04/02 00:31:51;;;;;;;0.90;0.90;;;4.50;99.90;;;;;;6189036;23;20202;-88
2023/04/02 00:34:31;;;;;;;1.27;1.13;;;4.50;99.90;;;;;;6237242;23;20146;-88
2023/04/02 00:36:57;;;;;;;2.90;2.03;;;4.50;99.90;;;;;;6186487;23;20143;-87
2023/04/02 00:39:26;;;;;;;0.47;0.47;;;4.40;99.90;;;;;;6208937;23;20198;-87
2023/04/02 00:42:03;;;;;;;0.43;0.43;;;4.40;99.90;;;;;;6205860;23;20194;-87
2023/04/02 00:44:42;;;;;;;0.43;0.43;;;4.40;99.90;;;;;;6214483;23;20533;-87
2023/04/02 00:47:23;;;;;;;0.47;0.47;;;4.30;99.90;;;;;;6217054;23;20499;-87
2023/04/02 00:50:04;;;;;;;0.63;0.63;;;4.30;99.90;;;;;;6239693;23;20255;-87
2023/04/02 00:52:31;;;;;;;0.33;0.33;;;4.30;99.90;;;;;;6239645;23;20552;-87
2023/04/02 00:55:06;;;;;;;1.13;0.67;;;4.30;99.90;;;;;;6214730;23;20158;-87
2023/04/02 00:57:32;;;;;;;0.97;0.97;;;4.30;99.90;;;;;;6239383;23;20197;-88
2023/04/02 01:00:10;;;;;;;0.83;0.83;;;4.30;99.90;;;;;;6214036;23;20284;-87
2023/04/02 01:02:39;;;;;;;0.47;0.47;;;4.20;99.90;;;;;;6239558;23;20239;-87
2023/04/02 01:05:14;;;;;;;0.70;0.70;;;4.30;99.90;;;;;;6215339;23;20526;-87
2023/04/02 01:07:56;;;;;;;0.70;0.70;;;4.20;99.90;;;;;;6239218;23;20193;-87
2023/04/02 01:10:45;;;;;;;4.23;1.80;;;4.20;99.90;;;;;;6239239;23;20173;-87
2023/04/02 01:13:40;;;;;;;0.60;0.60;;;4.20;99.90;;;;;;6239787;23;20142;-87
2023/04/02 01:16:31;;;;;;;0.77;0.77;;;4.10;99.90;;;;;;6240358;23;20149;-87
2023/04/02 01:19:26;;;;;;;0.30;0.30;;;4.10;99.90;;;;;;6209366;23;20183;-87
2023/04/02 01:22:00;;;;;;;0.50;0.50;;;4.10;99.90;;;;;;6234682;23;20197;-88
2023/04/02 01:24:32;;;;;;;0.50;0.50;;;4.10;99.90;;;;;;6238960;23;20209;-87
2023/04/02 01:26:59;;;;;;;0.57;0.57;;;4.10;99.90;;;;;;6239446;23;20201;-87
2023/04/02 01:29:28;;;;;;;0.30;0.30;;;4.00;99.90;;;;;;6239309;23;20265;-87
2023/04/02 01:32:01;;;;;;;0.63;0.63;;;4.00;99.90;;;;;;6239449;23;20210;-88
2023/04/02 01:34:28;;;;;;;0.40;0.40;;;4.00;99.90;;;;;;6239469;23;20161;-87
2023/04/02 01:37:02;;;;;;;1.03;0.77;;;4.00;99.90;;;;;;6214782;23;20155;-86
2023/04/02 01:39:46;;;;;;;0.67;0.67;;;4.00;99.90;;;;;;6241163;23;20204;-87
2023/04/02 01:42:25;;;;;;;0.80;0.80;;;3.90;99.90;;;;;;6240995;23;20219;-87
2023/04/02 01:45:09;;;;;;;1.20;1.13;;;3.90;99.90;;;;;;6241095;23;20249;-87
2023/04/02 01:47:37;;;;;;;0.40;0.40;;;3.90;99.90;;;;;;6241048;23;20197;-87
2023/04/02 01:50:30;;;;;;;0.50;0.50;;;3.80;99.90;;;;;;6215612;23;20201;-87
2023/04/02 01:53:01;;;;;;;0.43;0.43;;;3.80;99.90;;;;;;6240977;23;20186;-87
2023/04/02 01:55:37;;;;;;;0.50;0.50;;;3.80;99.90;;;;;;6241247;23;20444;-88
2023/04/02 01:58:04;;;;;;;0.60;0.60;;;3.70;99.90;;;;;;6241966;23;20173;-87
2023/04/02 02:00:31;;;;;;;0.40;0.40;;;3.70;99.90;;;;;;6240530;23;20205;-87
2023/04/02 02:03:00;;;;;;;0.50;0.50;;;3.70;99.90;;;;;;6215220;23;20194;-87
2023/04/02 02:05:27;;;;;;;0.67;0.67;;;3.60;99.90;;;;;;6240762;23;20570;-87
2023/04/02 02:07:55;;;;;;;0.50;0.50;;;3.60;99.90;;;;;;6215209;23;20198;-87
2023/04/02 02:10:32;;;;;;;0.70;0.70;;;3.60;99.90;;;;;;6240790;23;20178;-87
2023/04/02 02:12:59;;;;;;;0.50;0.50;;;3.60;99.90;;;;;;6241841;23;20575;-87
2023/04/02 02:15:26;;;;;;;0.50;0.50;;;3.60;99.90;;;;;;6215673;23;20209;-87
2023/04/02 02:17:58;;;;;;;0.60;0.60;;;3.60;99.90;;;;;;6215334;23;20566;-87
2023/04/02 02:20:26;;;;;;;0.50;0.50;;;3.60;99.90;;;;;;6240706;23;20194;-87
2023/04/02 02:22:53;;;;;;;4.37;0.77;;;3.60;99.90;;;;;;6240483;23;20323;-87
2023/04/02 02:25:25;;;;;;;0.40;0.40;;;3.60;99.90;;;;;;6216368;23;20201;-86
2023/04/02 02:27:57;;;;;;;0.40;0.40;;;3.50;99.90;;;;;;6215859;23;20146;-89
2023/04/02 02:30:40;;;;;;;0.83;0.83;;;3.50;99.90;;;;;;6240529;23;20237;-88
2023/04/02 02:33:36;;;;;;;0.47;0.47;;;3.60;99.90;;;;;;6240833;23;20220;-89
2023/04/02 02:36:27;;;;;;;0.40;0.40;;;3.50;99.90;;;;;;6240734;23;20256;-88
2023/04/02 02:39:45;;;;;;;3.00;0.87;;;3.50;99.90;;;;;;6240822;23;20672;-88
2023/04/02 02:42:29;;;;;;;1.30;1.20;;;3.50;99.90;;;;;;6236905;23;20191;-88
2023/04/02 02:44:57;;;;;;;0.93;0.93;;;3.50;99.90;;;;;;6240544;23;20194;-88
2023/04/02 02:47:27;;;;;;;0.90;0.70;;;3.40;99.90;;;;;;6215430;23;20190;-88
2023/04/02 02:49:56;;;;;;;6.37;1.33;;;3.40;99.90;;;;;;6240604;23;20289;-89
2023/04/02 02:52:26;;;;;;;1.03;1.03;;;3.30;99.90;;;;;;6240777;23;20154;-88
2023/04/02 02:55:03;;;;;;;0.87;0.60;;;3.30;99.90;;;;;;6241398;23;20146;-88
2023/04/02 02:57:42;;;;;;;0.40;0.40;;;3.30;99.90;;;;;;6240434;23;20200;-88
2023/04/02 03:00:14;;;;;;;0.97;0.53;;;3.20;99.90;;;;;;6240451;23;20646;-88
2023/04/02 03:02:42;;;;;;;0.70;0.70;;;3.20;99.90;;;;;;6216431;23;20193;-88
2023/04/02 03:05:08;;;;;;;1.00;1.00;;;3.20;99.90;;;;;;6215404;23;20270;-88
2023/04/02 03:07:36;;;;;;;0.47;0.47;;;3.20;99.90;;;;;;6215375;23;20194;-88
2023/04/02 03:10:18;;;;;;;0.50;0.50;;;3.20;99.90;;;;;;6215686;23;20182;-88
2023/04/02 03:13:02;;;;;;;0.30;0.30;;;3.20;99.90;;;;;;6240704;23;20166;-88
2023/04/02 03:15:39;;;;;;;0.93;0.87;;;3.20;99.90;;;;;;6216318;23;20221;-88
2023/04/02 03:18:53;;;;;;;0.40;0.40;;;3.20;99.90;;;;;;6240277;23;20193;-88
2023/04/02 03:21:48;;;;;;;2.77;1.37;;;3.20;99.90;;;;;;6200872;23;20243;-88
2023/04/02 03:24:40;;;;;;;0.60;0.60;;;3.20;99.90;;;;;;6239866;23;20280;-89
2023/04/02 03:27:13;;;;;;;4.77;0.97;;;3.20;99.90;;;;;;6240307;23;20206;-87
2023/04/02 03:29:45;;;;;;;0.50;0.50;;;3.20;99.90;;;;;;6239960;23;20202;-88
2023/04/02 03:32:22;;;;;;;3.73;1.50;;;3.20;99.90;;;;;;6240328;23;20220;-88
2023/04/02 03:34:58;;;;;;;0.40;0.40;;;3.10;99.90;;;;;;6240104;23;20201;-87
2023/04/02 03:37:39;;;;;;;0.67;0.67;;;3.10;99.90;;;;;;6240328;23;20578;-88
2023/04/02 03:40:14;;;;;;;0.40;0.40;;;3.20;99.90;;;;;;6241089;23;20195;-88
2023/04/02 03:42:48;;;;;;;0.93;0.50;;;3.10;99.90;;;;;;6214606;23;20406;-88
2023/04/02 03:45:42;;;;;;;0.80;0.80;;;3.10;99.90;;;;;;6239959;23;20272;-88
2023/04/02 03:48:29;;;;;;;2.00;1.90;;;3.10;99.90;;;;;;6211614;23;20646;-88
2023/04/02 03:51:18;;;;;;;0.40;0.40;;;3.10;99.90;;;;;;6240055;23;20217;-88
2023/04/02 03:53:45;;;;;;;1.80;1.27;;;3.10;99.90;;;;;;6239539;23;20198;-87
2023/04/02 03:56:30;;;;;;;16.33;1.17;;;3.00;99.90;;;;;;6240098;23;20252;-88
2023/04/02 03:59:43;;;;;;;0.70;0.70;;;2.90;99.90;;;;;;6239839;23;20193;-88
2023/04/02 04:02:33;;;;;;;0.60;0.60;;;2.90;99.90;;;;;;6199629;23;20646;-88
2023/04/02 04:05:01;;;;;;;1.07;1.07;;;2.90;99.90;;;;;;6239807;23;20278;-87
2023/04/02 04:07:33;;;;;;;0.50;0.50;;;3.00;99.90;;;;;;6215144;23;20168;-88
2023/04/02 04:10:00;;;;;;;0.40;0.40;;;3.00;99.90;;;;;;6240579;23;20143;-89
2023/04/02 04:12:31;;;;;;;0.40;0.40;;;3.00;99.90;;;;;;6214837;23;20194;-87
2023/04/02 04:15:09;;;;;;;0.40;0.40;;;3.00;99.90;;;;;;6239689;23;20190;-88
2023/04/02 04:17:50;;;;;;;0.40;0.40;;;3.00;99.90;;;;;;6215781;23;20653;-88
2023/04/02 04:20:27;;;;;;;0.40;0.40;;;3.00;99.90;;;;;;6239896;23;20198;-88
2023/04/02 04:22:54;;;;;;;1.17;0.70;;;2.90;99.90;;;;;;6240209;23;20204;-88
2023/04/02 04:25:28;;;;;;;0.70;0.70;;;3.00;99.90;;;;;;6239376;23;20198;-88
2023/04/02 04:28:16;;;;;;;0.40;0.40;;;3.00;99.90;;;;;;6240653;23;20142;-88
2023/04/02 04:31:16;;;;;;;0.40;0.40;;;2.90;99.90;;;;;;6214868;23;20639;-88
2023/04/02 04:33:49;;;;;;;1.03;0.77;;;2.90;99.90;;;;;;6214676;23;20177;-88
2023/04/02 04:36:32;;;;;;;0.63;0.63;;;2.90;99.90;;;;;;6239670;23;20194;-88
2023/04/02 04:39:06;;;;;;;0.40;0.40;;;2.90;99.90;;;;;;6239682;23;20208;-88
2023/04/02 04:41:36;;;;;;;0.50;0.50;;;2.90;99.90;;;;;;6239646;23;20224;-88
2023/04/02 04:44:14;;;;;;;0.50;0.50;;;2.90;99.90;;;;;;6239730;23;20273;-87
2023/04/02 04:47:05;;;;;;;0.47;0.47;;;3.00;99.90;;;;;;6240043;23;20190;-87
2023/04/02 04:49:44;;;;;;;1.00;1.00;;;3.00;99.90;;;;;;6239596;23;20217;-87
2023/04/02 04:52:20;;;;;;;0.57;0.57;;;3.00;99.90;;;;;;6237203;23;20142;-88
2023/04/02 04:54:47;;;;;;;0.37;0.37;;;2.90;99.90;;;;;;6238491;23;20138;-89
2023/04/02 04:57:34;;;;;;;0.50;0.50;;;2.90;99.90;;;;;;6211730;23;20243;-87
2023/04/02 05:00:11;;;;;;;0.63;0.63;;;2.90;99.90;;;;;;6237842;23;20193;-88
2023/04/02 05:03:08;;;;;;;0.40;0.40;;;2.90;99.90;;;;;;6213375;23;20725;-87
2023/04/02 05:05:38;;;;;;;0.77;0.77;;;2.90;99.90;;;;;;6238359;23;20201;-87
2023/04/02 05:08:27;;;;;;;0.40;0.40;;;2.90;99.90;;;;;;6212894;23;20190;-87
2023/04/02 05:11:04;;;;;;;0.40;0.40;;;2.90;99.90;;;;;;6238577;23;20232;-88
2023/04/02 05:13:37;;;;;;;0.50;0.50;;;3.00;99.90;;;;;;6239178;23;20633;-88
2023/04/02 05:16:25;;;;;;;1.60;0.47;;;3.00;99.90;;;;;;6240882;23;20154;-88
2023/04/02 05:19:09;;;;;;;0.47;0.47;;;3.00;99.90;;;;;;6238781;23;20185;-88
2023/04/02 05:22:02;;;;;;;0.37;0.37;;;3.00;99.90;;;;;;6215678;23;20254;-88
2023/04/02 05:24:50;;;;;;;0.50;0.50;;;3.30;99.90;;;;;;6228574;23;20198;-88
2023/04/02 05:27:45;;;;;;;0.53;0.53;;;3.30;99.90;;;;;;6239735;23;20247;-87
2023/04/02 05:30:45;;;;;;;0.50;0.50;;;3.40;99.90;;;;;;6240369;23;20237;-88
2023/04/02 05:33:29;;;;;;;0.30;0.30;;;3.70;99.90;;;;;;6239539;23;20657;-87
2023/04/02 05:36:08;;;;;;;0.50;0.50;;;3.90;99.90;;;;;;6240588;23;20240;-89
2023/04/02 05:38:42;;;;;;;0.30;0.30;;;4.20;99.90;;;;;;6237471;23;20190;-90
2023/04/02 05:41:37;;;;;;;0.53;0.53;;;4.30;99.90;;;;;;6241064;23;20218;-88
2023/04/02 05:44:31;;;;;;;1.27;1.27;;;4.40;99.90;;;;;;6240089;23;20194;-88
2023/04/02 05:47:04;;;;;;;0.50;0.50;;;4.60;99.90;;;;;;6240804;23;20190;-88
2023/04/02 05:49:40;;;;;;;0.93;0.70;;;4.50;99.90;;;;;;6238148;23;20255;-88
2023/04/02 05:52:12;;;;;;;0.40;0.40;;;4.80;99.90;;;;;;6240876;23;20193;-88
2023/04/02 05:54:50;;;;;;;0.50;0.50;;;5.20;99.90;;;;;;6240502;23;20936;-89
2023/04/02 05:57:21;;;;;;;0.40;0.40;;;5.60;99.90;;;;;;6240806;23;20198;-88
2023/04/02 05:59:55;;;;;;;0.73;0.73;;;6.00;99.90;;;;;;6239135;23;20196;-86
2023/04/02 06:02:24;;;;;;;1.23;1.23;;;6.00;99.90;;;;;;6240294;23;20212;-88
2023/04/02 06:05:06;;;;;;;0.37;0.37;;;6.20;99.90;;;;;;6240839;23;20639;-88
2023/04/02 06:07:39;;;;;;;0.50;0.50;;;6.30;99.90;;;;;;6240608;23;20197;-91
2023/04/02 06:10:36;;;;;;;0.50;0.50;;;6.30;99.90;;;;;;6241125;23;20192;-90
2023/04/02 06:13:05;;;;;;;0.50;0.37;;;6.50;99.90;;;;;;6241151;23;20506;-91
2023/04/02 06:15:32;;;;;;;0.30;0.30;;;6.20;99.90;;;;;;6240497;23;20643;-90
2023/04/02 06:18:08;;;;;;;0.50;0.50;;;6.10;99.90;;;;;;6213917;23;20234;-91
2023/04/02 06:20:34;;;;;;;0.80;0.80;;;6.20;99.90;;;;;;6239268;23;20213;-91
2023/04/02 06:23:33;;;;;;;0.30;0.30;;;6.20;99.90;;;;;;6214267;23;20630;-90
2023/04/02 06:26:05;;;;;;;0.53;0.53;;;6.00;99.90;;;;;;6239954;23;20222;-89
2023/04/02 06:28:45;;;;;;;0.40;0.40;;;5.40;99.90;;;;;;6238715;23;20237;-91
2023/04/02 06:31:39;;;;;;;0.30;0.30;;;5.30;99.90;;;;;;6240227;23;20185;-90
2023/04/02 06:34:12;;;;;;;0.40;0.40;;;5.20;99.90;;;;;;6240199;23;20154;-90
2023/04/02 06:36:38;;;;;;;0.60;0.60;;;5.30;99.90;;;;;;6215874;23;20170;-89
2023/04/02 06:39:09;;;;;;;0.40;0.40;;;5.30;99.90;;;;;;6190052;23;20273;-90
2023/04/02 06:41:35;;;;;;;0.50;0.50;;;5.30;99.90;;;;;;6239938;23;20194;-89
2023/04/02 06:44:09;;;;;;;0.40;0.40;;;5.50;99.90;;;;;;6215284;23;20186;-89
2023/04/02 06:46:44;;;;;;;0.53;0.53;;;5.90;99.90;;;;;;6239899;23;20220;-90
2023/04/02 06:49:28;;;;;;;1.13;1.13;;;6.50;99.90;;;;;;6239814;23;20472;-86
2023/04/02 06:51:55;;;;;;;0.40;0.40;;;7.10;99.90;;;;;;6239920;23;20249;-88
2023/04/02 06:54:21;;;;;;;0.40;0.40;;;7.70;99.90;;;;;;6239536;23;20201;-88
2023/04/02 06:56:50;;;;;;;1.13;0.70;;;7.90;99.90;;;;;;6214637;23;20190;-88
2023/04/02 06:59:17;;;;;;;0.77;0.60;;;7.10;99.90;;;;;;6237347;23;20214;-88
2023/04/02 07:02:05;;;;;;;0.30;0.30;;;6.10;99.90;;;;;;6215832;23;20776;-88
2023/04/02 07:04:34;;;;;;;0.50;0.50;;;6.70;99.90;;;;;;6238636;23;20582;-88
2023/04/02 07:07:00;;;;;;;0.50;0.50;;;7.30;99.90;;;;;;6215103;23;20155;-88
2023/04/02 07:09:25;;;;;;;0.90;0.90;;;8.00;99.90;;;;;;6212588;23;20209;-89
2023/04/02 07:11:51;;;;;;;0.40;0.40;;;8.20;99.90;;;;;;6213883;23;20255;-88
2023/04/02 07:14:17;;;;;;;0.40;0.40;;;8.10;99.90;;;;;;6213890;23;20240;-88
2023/04/02 07:16:43;;;;;;;0.80;0.63;;;8.20;99.90;;;;;;6239338;23;20193;-88
2023/04/02 07:19:18;;;;;;;0.60;0.60;;;8.30;99.90;;;;;;6213177;23;20185;-88
2023/04/02 07:21:43;;;;;;;0.40;0.40;;;7.90;99.90;;;;;;6240284;23;20213;-88
2023/04/02 07:24:13;;;;;;;4.90;0.70;;;8.10;99.90;;;;;;6213663;23;20209;-87
2023/04/02 07:26:39;;;;;;;0.83;0.80;;;7.70;99.90;;;;;;6239356;23;20202;-88
2023/04/02 07:29:13;;;;;;;0.73;0.73;;;7.70;99.90;;;;;;6212073;23;20332;-88
2023/04/02 07:31:40;;;;;;;2.20;0.93;;;7.10;99.90;;;;;;6238734;23;20946;-88
2023/04/02 07:34:06;;;;;;;0.50;0.50;;;6.40;99.90;;;;;;6213953;23;20169;-88
2023/04/02 07:36:35;;;;;;;0.73;0.63;;;6.40;99.90;;;;;;6213238;23;20209;-89
2023/04/02 07:39:01;;;;;;;0.60;0.60;;;6.60;99.90;;;;;;6213370;23;20637;-88
2023/04/02 07:41:27;;;;;;;1.80;0.60;;;6.60;99.90;;;;;;6214017;23;20870;-88
2023/04/02 07:43:53;;;;;;;0.30;0.30;;;6.60;99.90;;;;;;6213063;23;20193;-88
2023/04/02 07:46:19;;;;;;;0.33;0.33;;;6.30;99.90;;;;;;6214192;23;20166;-88
2023/04/02 07:48:46;;;;;;;0.40;0.40;;;6.20;99.90;;;;;;6188473;23;20587;-87
2023/04/02 07:51:23;;;;;;;0.30;0.30;;;6.20;99.90;;;;;;6213387;23;20202;-87
2023/04/02 07:53:54;;;;;;;0.40;0.40;;;6.20;99.90;;;;;;6239218;23;20712;-88
2023/04/02 07:56:20;;;;;;;0.53;0.47;;;6.00;99.90;;;;;;6238430;23;20197;-86
2023/04/02 07:58:46;;;;;;;2.40;1.23;;;6.70;99.90;;;;;;6237972;23;20192;-87
2023/04/02 08:01:26;;;;;;;0.40;0.40;;;7.80;99.90;;;;;;6213462;23;20253;-89
2023/04/02 08:03:55;;;;;;;0.33;0.33;;;8.40;99.90;;;;;;6240212;23;20610;-90
2023/04/02 08:06:22;;;;;;;0.73;0.73;;;8.20;99.90;;;;;;6238230;23;20198;-88
2023/04/02 08:08:48;;;;;;;0.50;0.50;;;8.20;99.90;;;;;;6212579;23;20219;-88
2023/04/02 08:11:14;;;;;;;0.30;0.30;;;8.10;99.90;;;;;;6213678;23;20201;-89
2023/04/02 08:13:40;;;;;;;0.70;0.70;;;7.70;99.90;;;;;;6213392;23;20201;-88
2023/04/02 08:16:06;;;;;;;1.17;1.17;;;8.00;99.90;;;;;;6214052;23;20158;-89
2023/04/02 08:18:32;;;;;;;0.30;0.30;;;7.90;99.90;;;;;;6212770;23;20650;-89
2023/04/02 08:20:58;;;;;;;0.50;0.50;;;8.00;99.90;;;;;;6213651;23;20649;-90
2023/04/02 08:23:25;;;;;;;0.50;0.50;;;8.40;99.90;;;;;;6213392;23;20214;-88
2023/04/02 08:25:52;;;;;;;0.63;0.63;;;8.30;99.90;;;;;;6213727;23;20224;-89
2023/04/02 08:28:18;;;;;;;0.40;0.40;;;8.20;99.90;;;;;;6213006;23;20158;-87
2023/04/02 08:30:44;;;;;;;6.07;1.80;;;7.80;99.90;;;;;;6213767;23;20197;-87
2023/04/02 08:33:13;;;;;;;1.93;0.63;;;7.90;99.90;;;;;;6213159;23;20269;-87
2023/04/02 08:35:38;;;;;;;0.30;0.30;;;8.20;99.90;;;;;;6213434;23;20194;-88
2023/04/02 08:38:04;;;;;;;0.60;0.60;;;7.90;99.90;;;;;;6187568;23;20516;-88
2023/04/02 08:40:35;;;;;;;0.30;0.30;;;7.80;99.90;;;;;;6214120;23;20186;-88
2023/04/02 08:43:27;;;;;;;0.60;0.60;;;7.90;99.90;;;;;;6240156;23;20138;-88
2023/04/02 08:46:27;;;;;;;0.40;0.40;;;8.50;99.90;;;;;;6214306;23;20197;-88
2023/04/02 08:48:57;;;;;;;0.60;0.60;;;8.30;99.90;;;;;;6186832;23;20205;-88
2023/04/02 08:51:31;;;;;;;0.30;0.30;;;8.50;99.90;;;;;;6238828;23;20198;-88
2023/04/02 08:54:25;;;;;;;0.30;0.30;;;8.70;99.90;;;;;;6217957;23;20191;-88
2023/04/02 08:57:14;;;;;;;2.30;1.07;;;8.20;99.90;;;;;;6210769;23;20190;-87
2023/04/02 08:59:42;;;;;;;0.40;0.40;;;8.20;99.90;;;;;;6209721;23;20190;-87
2023/04/02 09:02:26;;;;;;;0.50;0.50;;;8.20;99.90;;;;;;6185191;23;20269;-88
2023/04/02 09:04:54;;;;;;;0.50;0.50;;;8.00;99.90;;;;;;6194386;23;20213;-87
2023/04/02 09:07:24;;;;;;;0.73;0.40;;;8.10;99.90;;;;;;6215396;23;20605;-88
2023/04/02 09:09:50;;;;;;;1.90;0.80;;;8.40;99.90;;;;;;6217003;23;20173;-88
2023/04/02 09:12:28;;;;;;;0.30;0.30;;;7.50;99.90;;;;;;6240881;23;20205;-89
2023/04/02 09:15:06;;;;;;;0.57;0.57;;;7.50;99.90;;;;;;6240703;23;20194;-88
2023/04/02 09:17:32;;;;;;;0.37;0.37;;;8.20;99.90;;;;;;6240218;23;20201;-88
2023/04/02 09:20:01;;;;;;;0.30;0.30;;;8.50;99.90;;;;;;6204375;23;20190;-91
2023/04/02 09:22:30;;;;;;;0.37;0.37;;;8.50;99.90;;;;;;6188912;23;20170;-88
2023/04/02 09:25:03;;;;;;;2.53;0.40;;;8.40;99.90;;;;;;6240651;23;20190;-87
2023/04/02 09:27:34;;;;;;;0.30;0.30;;;8.70;99.90;;;;;;6186604;23;20256;-87
2023/04/02 09:30:13;;;;;;;0.93;0.50;;;8.40;99.90;;;;;;6183749;23;20257;-88
2023/04/02 09:32:51;;;;;;;0.30;0.30;;;8.80;99.90;;;;;;6185496;23;20202;-90
2023/04/02 09:35:20;;;;;;;0.40;0.40;;;8.90;99.90;;;;;;6210984;23;20186;-88
2023/04/02 09:37:47;;;;;;;0.30;0.30;;;8.60;99.90;;;;;;6210747;23;20191;-89
2023/04/02 09:40:26;;;;;;;1.60;0.47;;;9.00;99.90;;;;;;6211305;23;20484;-89
2023/04/02 09:43:13;;;;;;;0.50;0.50;;;8.20;99.90;;;;;;6211806;23;20194;-88
2023/04/02 09:45:41;;;;;;;0.30;0.30;;;8.10;99.90;;;;;;6211406;23;20175;-89
2023/04/02 09:48:24;;;;;;;0.53;0.53;;;8.50;99.90;;;;;;6235516;23;20190;-88
2023/04/02 09:51:06;;;;;;;0.37;0.37;;;7.90;99.90;;;;;;6219709;23;20313;-89
2023/04/02 09:53:39;;;;;;;0.40;0.40;;;8.30;99.90;;;;;;6211046;23;20531;-89
2023/04/02 09:56:11;;;;;;;0.30;0.30;;;8.50;99.90;;;;;;6210578;23;20194;-88
2023/04/02 09:58:38;;;;;;;0.43;0.43;;;8.60;99.90;;;;;;6210153;23;20191;-88
2023/04/02 10:01:07;;;;;;;0.37;0.37;;;8.50;99.90;;;;;;6161605;23;20210;-89
2023/04/02 10:03:33;;;;;;;0.30;0.30;;;8.00;99.90;;;;;;6161363;23;20274;-89
2023/04/02 10:06:04;;;;;;;0.67;0.60;;;8.20;99.90;;;;;;6185629;23;20277;-88
2023/04/02 10:08:30;;;;;;;0.70;0.70;;;8.60;99.90;;;;;;6202997;23;20277;-88
2023/04/02 10:11:00;;;;;;;0.50;0.33;;;8.80;99.90;;;;;;6205868;23;20198;-88
2023/04/02 10:13:37;;;;;;;0.23;0.23;;;9.00;99.90;;;;;;6214395;23;20184;-87
2023/04/02 10:16:33;;;;;;;1.10;0.60;;;8.20;99.90;;;;;;6241499;23;20236;-87
2023/04/02 10:19:12;;;;;;;0.10;0.10;;;8.70;99.90;;;;;;6211264;23;20206;-87
2023/04/02 10:21:40;;;;;;;0.60;0.40;;;8.60;99.90;;;;;;6185275;23;20170;-88
2023/04/02 10:24:14;;;;;;;0.30;0.30;;;8.70;99.90;;;;;;6210505;23;20197;-87
2023/04/02 10:27:02;;;;;;;0.70;0.70;;;8.40;99.90;;;;;;6186618;23;20205;-87
2023/04/02 10:29:50;;;;;;;0.40;0.40;;;8.70;99.90;;;;;;6207841;23;20666;-86
2023/04/02 10:32:40;;;;;;;0.20;0.20;;;9.00;99.90;;;;;;6208749;23;20210;-86
2023/04/02 10:35:06;;;;;;;0.30;0.30;;;8.80;99.90;;;;;;6209242;23;20951;-85
2023/04/02 10:38:01;;;;;;;0.20;0.20;;;9.00;99.90;;;;;;6208694;23;20252;-86
2023/04/02 10:40:34;;;;;;;0.30;0.30;;;9.20;99.90;;;;;;6208889;23;20158;-86
2023/04/02 10:43:12;;;;;;;0.40;0.40;;;8.60;99.90;;;;;;6185999;23;20169;-88
2023/04/02 10:46:19;;;;;;;3.40;0.40;;;8.40;99.90;;;;;;6183399;23;20178;-86
2023/04/02 10:49:05;;;;;;;0.30;0.30;;;8.60;99.90;;;;;;6151463;23;20630;-86
2023/04/02 10:51:33;;;;;;;0.30;0.30;;;8.60;99.90;;;;;;6208739;23;20738;-87
2023/04/02 10:54:31;;;;;;;0.20;0.20;;;9.10;99.90;;;;;;6208939;23;20203;-86
2023/04/02 10:57:07;;;;;;;14.83;4.10;;;8.70;99.90;;;;;;6208860;23;20277;-86
2023/04/02 10:59:35;;;;;;;0.50;0.50;;;8.70;99.90;;;;;;6209153;23;20674;-85
2023/04/02 11:02:14;;;;;;;0.30;0.30;;;8.70;99.90;;;;;;6184092;23;20191;-86
2023/04/02 11:04:46;;;;;;;0.50;0.50;;;8.80;99.90;;;;;;6207593;23;20533;-85
2023/04/02 11:07:21;;;;;;;0.40;0.40;;;8.40;99.90;;;;;;6184118;23;20162;-86
2023/04/02 11:09:51;;;;;;;0.20;0.20;;;8.20;99.90;;;;;;6208542;23;20560;-85
2023/04/02 11:12:40;;;;;;;5.70;0.40;;;8.50;99.90;;;;;;6208742;23;20257;-86
2023/04/02 11:15:17;;;;;;;0.20;0.20;;;8.80;99.90;;;;;;6207411;23;20245;-86
2023/04/02 11:17:44;;;;;;;0.10;0.10;;;9.10;99.90;;;;;;6208109;23;20670;-85
2023/04/02 11:20:47;;;;;;;0.20;0.20;;;9.10;99.90;;;;;;6183214;23;20635;-86
2023/04/02 11:23:17;;;;;;;0.30;0.30;;;8.90;99.90;;;;;;6198600;23;20204;-86
2023/04/02 11:25:45;;;;;;;0.57;0.57;;;9.00;99.90;;;;;;6237439;23;20216;-86
2023/04/02 11:28:29;;;;;;;0.20;0.20;;;9.00;99.90;;;;;;6205437;23;20532;-85
2023/04/02 11:30:56;;;;;;;2.53;0.43;;;8.70;99.90;;;;;;6208215;23;20533;-87
2023/04/02 11:33:33;;;;;;;4.23;0.97;;;8.70;99.90;;;;;;6186001;23;20464;-86
2023/04/02 11:36:00;;;;;;;0.30;0.30;;;8.40;99.90;;;;;;6208201;23;20496;-85
2023/04/02 11:38:26;;;;;;;0.67;0.57;;;8.60;99.90;;;;;;6183298;23;20209;-86
2023/04/02 11:40:56;;;;;;;0.30;0.30;;;8.60;99.90;;;;;;6200255;23;20194;-86
2023/04/02 11:43:31;;;;;;;0.20;0.20;;;8.50;99.90;;;;;;6238488;23;20261;-88
2023/04/02 11:46:00;;;;;;;0.23;0.23;;;8.70;99.90;;;;;;6238738;23;20196;-88
2023/04/02 11:48:35;;;;;;;0.30;0.30;;;8.50;99.90;;;;;;6240292;23;20161;-86
2023/04/02 11:51:22;;;;;;;0.20;0.20;;;8.80;99.90;;;;;;6207477;23;20204;-87
2023/04/02 11:53:49;;;;;;;0.33;0.33;;;8.50;99.90;;;;;;6237074;23;20201;-86
2023/04/02 11:56:42;;;;;;;0.60;0.40;;;8.50;99.90;;;;;;6191923;23;20218;-87
2023/04/02 11:59:38;;;;;;;0.20;0.20;;;8.90;99.90;;;;;;6207735;23;20229;-86
2023/04/02 12:02:30;;;;;;;0.30;0.30;;;8.50;99.90;;;;;;6208149;23;20214;-87
2023/04/02 12:05:08;;;;;;;0.17;0.17;;;8.50;99.90;;;;;;6209101;23;20655;-87
2023/04/02 12:08:07;;;;;;;2.47;0.80;;;8.30;99.90;;;;;;6206272;23;20277;-87
2023/04/02 12:10:58;;;;;;;1.03;0.30;;;8.40;99.90;;;;;;6179882;23;20202;-89
2023/04/02 12:13:39;;;;;;;0.40;0.40;;;8.50;99.90;;;;;;6208256;23;20266;-87
2023/04/02 12:16:10;;;;;;;0.30;0.30;;;8.50;99.90;;;;;;6206985;23;20225;-86
2023/04/02 12:18:52;;;;;;;0.20;0.20;;;8.30;99.90;;;;;;6181628;23;20155;-87
2023/04/02 12:21:21;;;;;;;1.43;1.03;;;8.40;99.90;;;;;;6208597;23;20561;-88
2023/04/02 12:23:47;;;;;;;0.50;0.50;;;8.30;99.90;;;;;;6206843;23;20198;-85
2023/04/02 12:26:41;;;;;;;0.20;0.20;;;8.10;99.90;;;;;;6182493;23;20230;-86
2023/04/02 12:29:27;;;;;;;0.40;0.40;;;8.20;99.90;;;;;;6202135;23;20208;-86
2023/04/02 12:31:57;;;;;;;0.30;0.30;;;8.00;99.90;;;;;;6211351;23;20202;-85
2023/04/02 12:34:25;;;;;;;2.23;0.40;;;8.10;99.90;;;;;;6207058;23;20999;-85
2023/04/02 12:37:04;;;;;;;0.40;0.40;;;8.30;99.90;;;;;;6206779;23;20198;-84
2023/04/02 12:39:33;;;;;;;0.20;0.20;;;8.10;99.90;;;;;;6205249;23;20244;-85
2023/04/02 12:42:00;;;;;;;0.20;0.20;;;8.30;99.90;;;;;;6206969;23;20165;-85
2023/04/02 12:44:30;;;;;;;4.43;0.50;;;8.10;99.90;;;;;;6184139;23;20533;-86
2023/04/02 12:46:57;;;;;;;0.30;0.30;;;8.10;99.90;;;;;;6182078;23;20277;-85
2023/04/02 12:49:29;;;;;;;0.30;0.30;;;8.10;99.90;;;;;;6211693;23;20198;-85
2023/04/02 12:51:56;;;;;;;0.30;0.30;;;8.00;99.90;;;;;;6223155;23;20215;-87
2023/04/02 12:54:21;;;;;;;0.93;0.33;;;8.20;99.90;;;;;;6182586;23;20190;-85
2023/04/02 12:56:48;;;;;;;2.87;2.30;;;8.30;99.90;;;;;;6182674;23;20166;-85
2023/04/02 12:59:41;;;;;;;0.20;0.20;;;8.30;99.90;;;;;;6209695;23;20200;-85
2023/04/02 13:02:25;;;;;;;0.30;0.30;;;8.20;99.90;;;;;;6209861;23;20201;-85
2023/04/02 13:04:54;;;;;;;0.20;0.20;;;8.10;99.90;;;;;;6236742;23;20194;-86
2023/04/02 13:07:24;;;;;;;0.40;0.40;;;8.30;99.90;;;;;;6236726;23;20189;-90
2023/04/02 13:10:02;;;;;;;0.30;0.30;;;8.30;99.90;;;;;;6236027;23;20271;-86
2023/04/02 13:12:35;;;;;;;2.53;0.50;;;8.30;99.90;;;;;;6237496;23;20213;-86
2023/04/02 13:15:05;;;;;;;0.30;0.30;;;8.00;99.90;;;;;;6237079;23;20181;-87
2023/04/02 13:17:46;;;;;;;0.37;0.37;;;8.20;99.90;;;;;;6237150;23;20178;-86
2023/04/02 13:20:31;;;;;;;1.70;0.37;;;8.10;99.90;;;;;;6183838;23;20214;-84
2023/04/02 13:22:58;;;;;;;0.57;0.50;;;8.30;99.90;;;;;;6208074;23;20229;-85
2023/04/02 13:25:34;;;;;;;0.30;0.30;;;8.30;99.90;;;;;;6191828;23;20207;-86
2023/04/02 13:28:00;;;;;;;0.40;0.27;;;8.30;99.90;;;;;;6195738;23;20200;-85
2023/04/02 13:30:27;;;;;;;0.37;0.37;;;8.00;99.90;;;;;;6204757;23;20209;-84
2023/04/02 13:32:55;;;;;;;1.93;0.50;;;8.10;99.90;;;;;;6195296;23;20193;-85
2023/04/02 13:35:21;;;;;;;0.60;0.60;;;8.50;99.90;;;;;;6238576;23;20197;-85
2023/04/02 13:37:47;;;;;;;0.20;0.20;;;8.20;99.90;;;;;;6188443;23;20583;-89
2023/04/02 13:40:16;;;;;;;0.20;0.20;;;8.20;99.90;;;;;;6240804;23;20541;-89
2023/04/02 13:42:43;;;;;;;0.30;0.30;;;8.00;99.90;;;;;;6187726;23;20198;-89